Ellenville, New York
Current Conditions -  °F | °C
As of 5:54 AM on Thursday 23 Oct 2014 (Local Time) from KMGJ Reporting Station
Overcast Overcast  
Wind Chill: 45°   Ceiling: 900
Heat Index: 49°   Visibility: 10mi
Dew Point: 46°   Wind: 9mph
Humidity: 90%   Direction: 20°NNE
Pressure: 29.76"   Gusts: NA
Location:  41.72°N, 74.4°W
Report Text: KMGJ 230954Z AUTO 02008KT 10SM BKN009 OVC035 09/08 A2976 RMK AO2 RAB0857E19 SLP076 P0000 T00940078 TSNO
Loading
Personal Weather Stations






























Interactive Weather Map
Tropical Storm Tracking
New forecast layout! Learn more

10-Day Weather Forecast

Advertisements
Track Severe Weather on mobile